Time;durP1;ratioP1;P1;durP2;ratioP2;P2;SDS_P1;SDS_P2;PMS_P1;PMS_P2;Temp;Humidity;BMP_temperature;BMP_pressure;BME280_temperature;BME280_humidity;BME280_pressure;Samples;Min_cycle;Max_cycle;Signal;HPM_P1;HPM_P2
2022/08/25 00:00:05;;;;;;;8.05;6.60;;;;;;;22.11;77.78;101430.94;6186927;23;20012;-91
2022/08/25 00:02:44;;;;;;;8.90;6.65;;;;;;;22.05;77.39;101430.09;6184974;23;20091;-91
2022/08/25 00:05:12;;;;;;;9.75;6.28;;;;;;;22.05;78.47;101429.28;6161955;23;20017;-91
2022/08/25 00:07:38;;;;;;;7.47;6.45;;;;;;;22.00;79.27;101432.06;6184934;23;20008;-90
2022/08/25 00:10:07;;;;;;;8.43;6.20;;;;;;;21.95;79.79;101432.88;6184498;23;20335;-91
2022/08/25 00:12:37;;;;;;;7.43;6.55;;;;;;;21.93;79.12;101434.28;6184356;23;20020;-90
2022/08/25 00:15:08;;;;;;;6.97;6.28;;;;;;;21.86;80.01;101435.38;6161057;23;20017;-91
2022/08/25 00:17:34;;;;;;;9.15;7.22;;;;;;;21.82;79.94;101436.22;6184775;23;20009;-90
2022/08/25 00:20:08;;;;;;;9.87;6.30;;;;;;;21.80;81.09;101433.72;6184318;23;20009;-90
2022/08/25 00:22:54;;;;;;;7.30;6.55;;;;;;;21.77;81.63;101434.28;6184659;23;20005;-89
2022/08/25 00:25:28;;;;;;;8.10;7.30;;;;;;;21.67;81.87;101431.53;6163245;23;20036;-90
2022/08/25 00:28:01;;;;;;;7.88;7.00;;;;;;;21.67;81.63;101432.38;6185023;23;20009;-90
2022/08/25 00:30:29;;;;;;;7.93;7.23;;;;;;;21.60;80.86;101431.81;6185199;23;20004;-90
2022/08/25 00:32:57;;;;;;;10.60;7.32;;;;;;;21.58;80.63;101431.25;6186657;23;20008;-90
2022/08/25 00:35:39;;;;;;;9.15;6.82;;;;;;;21.59;80.26;101440.38;6184865;23;20028;-90
2022/08/25 00:38:08;;;;;;;9.48;6.85;;;;;;;21.53;82.74;101439.53;6184790;23;20008;-90
2022/08/25 00:40:33;;;;;;;7.90;7.10;;;;;;;21.42;82.59;101430.41;6185152;23;20036;-90
2022/08/25 00:43:05;;;;;;;7.60;6.90;;;;;;;21.43;82.92;101431.22;6184927;23;20056;-90
2022/08/25 00:45:34;;;;;;;7.88;6.93;;;;;;;21.42;82.88;101438.69;6160094;23;20017;-90
2022/08/25 00:48:00;;;;;;;7.80;7.05;;;;;;;21.40;82.73;101442.81;6174822;23;20009;-90
2022/08/25 00:50:30;;;;;;;7.67;6.80;;;;;;;21.38;82.97;101427.34;6184164;23;20080;-90
2022/08/25 00:53:00;;;;;;;8.20;7.25;;;;;;;21.33;83.72;101443.91;6184313;23;20020;-90
2022/08/25 00:55:41;;;;;;;10.80;7.25;;;;;;;21.30;83.97;101427.06;6185086;23;20001;-90
2022/08/25 00:58:19;;;;;;;8.32;7.15;;;;;;;21.26;84.95;101431.44;6160814;23;20428;-90
2022/08/25 01:00:51;;;;;;;8.23;7.43;;;;;;;21.21;83.43;101429.53;6185776;23;20012;-90
2022/08/25 01:03:21;;;;;;;9.33;8.10;;;;;;;21.16;83.93;101424.81;6185039;23;20020;-90
2022/08/25 01:05:53;;;;;;;8.18;7.43;;;;;;;21.18;84.44;101435.59;6184672;23;20001;-91
2022/08/25 01:08:28;;;;;;;8.80;7.90;;;;;;;21.16;83.70;101429.53;6184876;23;20009;-90
2022/08/25 01:11:03;;;;;;;9.45;7.68;;;;;;;21.11;84.33;101433.09;6185227;23;20083;-90
2022/08/25 01:13:44;;;;;;;10.70;7.75;;;;;;;21.09;84.40;101429.78;6187023;23;20005;-90
2022/08/25 01:16:11;;;;;;;11.00;8.03;;;;;;;21.05;85.40;101430.59;6186278;23;20009;-90
2022/08/25 01:18:57;;;;;;;12.73;7.75;;;;;;;21.01;84.11;101431.13;6186565;23;20005;-90
2022/08/25 01:21:27;;;;;;;8.75;7.68;;;;;;;20.98;85.50;101431.69;6161365;23;20005;-90
2022/08/25 01:24:02;;;;;;;10.77;8.07;;;;;;;20.95;85.40;101428.63;6186317;23;20051;-90
2022/08/25 01:26:33;;;;;;;11.65;8.38;;;;;;;20.90;84.31;101429.44;6186115;23;20008;-89
2022/08/25 01:29:19;;;;;;;11.27;8.70;;;;;;;20.88;85.34;101428.06;6186439;23;20144;-90
2022/08/25 01:31:47;;;;;;;12.68;8.60;;;;;;;20.81;85.07;101428.31;6185933;23;20013;-90
2022/08/25 01:34:14;;;;;;;11.35;9.00;;;;;;;20.79;85.20;101436.84;6186071;23;20009;-90
2022/08/25 01:36:41;;;;;;;10.48;9.10;;;;;;;;;;6185879;23;20322;-91
2022/08/25 01:39:37;;;;;;;;;;;;;;;;;;;;;
2022/08/25 01:42:09;;;;;;;12.90;8.50;;;;;;;20.71;85.21;101431.84;6188682;23;20060;-91
2022/08/25 01:44:49;;;;;;;11.30;8.98;;;;;;;20.68;84.34;101422.22;6188226;23;20012;-91
2022/08/25 01:47:24;;;;;;;10.05;9.05;;;;;;;20.67;85.20;101431.56;6186831;23;20009;-91
2022/08/25 01:49:49;;;;;;;10.57;9.20;;;;;;;20.62;84.72;101434.25;6187015;23;20019;-91
2022/08/25 01:52:26;;;;;;;13.07;8.83;;;;;;;20.61;84.20;101429.88;6186474;23;20056;-91
2022/08/25 01:54:55;;;;;;;10.18;9.07;;;;;;;20.56;84.93;101431.75;6185569;23;20012;-91
2022/08/25 01:57:21;;;;;;;11.00;9.90;;;;;;;20.50;84.95;101423.47;6161016;23;20009;-90
2022/08/25 01:59:49;;;;;;;13.35;9.35;;;;;;;20.51;84.67;101430.63;6187384;23;20009;-90
2022/08/25 02:02:15;;;;;;;10.37;9.27;;;;;;;20.46;84.02;101430.63;6186288;23;20013;-90
2022/08/25 02:04:40;;;;;;;10.32;9.23;;;;;;;20.45;84.51;101425.38;6161240;23;20080;-90
2022/08/25 02:07:09;;;;;;;12.07;9.13;;;;;;;20.46;84.11;101429.78;6185891;23;20016;-90
2022/08/25 02:09:36;;;;;;;10.68;8.88;;;;;;;20.40;83.45;101434.44;6160648;23;20021;-90
2022/08/25 02:12:14;;;;;;;9.38;8.48;;;;;;;20.39;83.33;101430.03;6161363;23;20021;-90
2022/08/25 02:14:45;;;;;;;11.45;9.02;;;;;;;20.38;83.11;101419.28;6162846;23;20057;-90
2022/08/25 02:17:13;;;;;;;12.30;8.87;;;;;;;20.34;83.37;101430.00;6136426;23;20013;-90
2022/08/25 02:19:51;;;;;;;9.80;8.73;;;;;;;20.29;82.91;101425.28;6161109;23;20005;-91
2022/08/25 02:22:32;;;;;;;9.63;8.25;;;;;;;20.27;82.48;101433.00;6187075;23;20032;-91
2022/08/25 02:25:01;;;;;;;9.82;8.13;;;;;;;20.25;83.01;101426.91;6139010;23;20016;-90
2022/08/25 02:27:40;;;;;;;9.80;8.90;;;;;;;20.23;83.46;101428.28;6161057;23;20005;-90
2022/08/25 02:30:12;;;;;;;9.93;8.83;;;;;;;20.19;83.25;101424.41;6138127;23;20036;-91
2022/08/25 02:32:41;;;;;;;11.73;8.70;;;;;;;20.20;83.29;101426.06;6161618;23;20040;-90
2022/08/25 02:35:19;;;;;;;;;;;;;;;;;;;;;
2022/08/25 02:37:45;;;;;;;11.70;8.77;;;;;;;20.12;83.56;101419.97;6164010;23;20088;-90
2022/08/25 02:40:17;;;;;;;10.23;8.87;;;;;;;20.12;83.53;101422.72;6136899;23;20037;-90
2022/08/25 02:42:54;;;;;;;10.20;8.70;;;;;;;20.12;83.88;101424.63;6161129;23;20016;-91
2022/08/25 02:45:22;;;;;;;12.43;8.55;;;;;;;20.03;83.68;101424.28;6138213;23;20013;-90
2022/08/25 02:47:52;;;;;;;11.15;8.75;;;;;;;20.03;84.17;101421.53;6160571;23;20075;-91
2022/08/25 02:50:28;;;;;;;11.45;8.85;;;;;;;20.01;84.38;101417.41;6160973;23;20012;-91
2022/08/25 02:52:56;;;;;;;14.00;8.67;;;;;;;20.00;83.21;101416.56;6162566;23;20439;-91
2022/08/25 02:55:24;;;;;;;9.40;8.32;;;;;;;19.94;83.96;101414.88;6136011;23;20347;-90
2022/08/25 02:57:52;;;;;;;10.43;9.20;;;;;;;19.95;83.49;101416.53;6161006;23;20110;-91
2022/08/25 03:00:18;;;;;;;9.80;8.13;;;;;;;19.91;83.51;101418.16;6136388;23;20024;-91
2022/08/25 03:02:46;;;;;;;13.10;8.40;;;;;;;19.90;83.61;101417.34;6186543;23;20013;-91
2022/08/25 03:05:13;;;;;;;10.60;8.40;;;;;;;19.89;84.21;101412.09;6160650;23;20009;-91
2022/08/25 03:07:44;;;;;;;9.30;8.23;;;;;;;19.83;83.87;101408.47;6161358;23;20403;-91
2022/08/25 03:13:11;;;;;;;10.45;8.43;;;;;;;19.80;83.48;101403.50;6160811;23;20020;-91
2022/08/25 03:15:47;;;;;;;9.10;8.10;;;;;;;19.80;83.11;101411.75;6185635;23;20012;-90
2022/08/25 03:18:37;;;;;;;;;;;;;;;;;;;;;
2022/08/25 03:21:06;;;;;;;8.15;7.35;;;;;;;19.73;82.96;101395.41;6187158;23;20084;-90
2022/08/25 03:23:38;;;;;;;12.18;8.35;;;;;;;19.71;84.02;101400.38;6185551;23;20084;-90
2022/08/25 03:29:09;;;;;;;10.80;7.70;;;;;;;19.63;82.06;101389.81;6187416;23;20051;-90
2022/08/25 03:31:41;;;;;;;8.75;7.47;;;;;;;19.63;83.41;101389.81;6185981;23;20001;-91
2022/08/25 03:34:15;;;;;;;10.65;8.15;;;;;;;19.63;82.11;101389.81;6185579;23;20037;-90
2022/08/25 03:36:51;;;;;;;13.43;8.13;;;;;;;19.60;82.92;101387.59;6187067;23;20419;-90
2022/08/25 03:39:19;;;;;;;10.95;8.07;;;;;;;19.57;82.99;101390.88;6185490;23;20005;-91
2022/08/25 03:42:05;;;;;;;11.17;7.93;;;;;;;19.56;82.25;101389.22;6184973;23;20013;-91
2022/08/25 03:44:39;;;;;;;12.43;7.50;;;;;;;19.50;82.08;101380.09;6185300;23;20017;-91
2022/08/25 03:50:03;;;;;;;11.82;8.00;;;;;;;19.44;81.92;101381.13;6186361;23;20040;-91
2022/08/25 03:52:41;;;;;;;15.63;7.65;;;;;;;19.44;81.85;101376.50;6186274;23;20008;-90
2022/08/25 03:55:14;;;;;;;11.30;7.70;;;;;;;19.42;81.49;101370.41;6185684;23;20432;-90
2022/08/25 03:57:43;;;;;;;12.45;7.82;;;;;;;19.39;80.82;101379.19;6187449;23;20013;-90
2022/08/25 04:00:33;;;;;;;;;;;;;;;;;;;;;
2022/08/25 04:03:02;;;;;;;9.30;7.30;;;;;;;19.39;79.80;101362.66;6187121;23;20077;-91
2022/08/25 04:05:35;;;;;;;10.55;7.68;;;;;;;19.36;78.92;101360.44;6184899;23;20035;-91
2022/08/25 04:08:14;;;;;;;10.83;7.20;;;;;;;19.34;78.30;101368.16;6160067;23;20031;-90
2022/08/25 04:10:50;;;;;;;;;;;;;;;;;;;;;
2022/08/25 04:13:21;;;;;;;13.02;7.55;;;;;;;19.30;74.87;101360.69;6187044;23;20507;-91
2022/08/25 04:15:58;;;;;;;15.27;8.05;;;;;;;19.32;74.17;101361.25;6184809;23;20005;-91
2022/08/25 04:18:24;;;;;;;14.75;7.88;;;;;;;19.34;73.08;101364.53;6185297;23;20087;-90
2022/08/25 04:21:03;;;;;;;9.20;7.37;;;;;;;19.38;72.67;101368.44;6159840;23;20420;-90
2022/08/25 04:23:36;;;;;;;11.75;7.22;;;;;;;19.37;72.27;101373.13;6186846;23;20012;-91
2022/08/25 04:26:11;;;;;;;12.23;7.70;;;;;;;19.39;72.00;101361.84;6185391;23;20017;-91
2022/08/25 04:28:42;;;;;;;13.63;7.45;;;;;;;19.41;71.22;101362.41;6184573;23;20462;-90
2022/08/25 04:31:28;;;;;;;;;;;;;;;;;;;;;
2022/08/25 04:34:14;;;;;;;;;;;;;;;;;;;;;
2022/08/25 04:36:55;;;;;;;15.60;7.30;;;;;;;19.45;69.85;101356.13;6187053;23;20080;-90
2022/08/25 04:39:41;;;;;;;12.32;7.53;;;;;;;19.47;69.83;101350.34;6185337;23;20008;-90
2022/08/25 04:42:10;;;;;;;9.07;7.20;;;;;;;19.50;69.28;101349.00;6162413;23;20017;-90
2022/08/25 04:44:36;;;;;;;10.45;7.18;;;;;;;19.50;69.15;101354.50;6184493;23;20009;-90
2022/08/25 04:47:02;;;;;;;14.90;7.50;;;;;;;19.46;68.87;101349.53;6184483;23;20017;-90
2022/08/25 04:49:31;;;;;;;16.35;7.30;;;;;;;19.48;69.10;101349.25;6184642;23;20341;-90
2022/08/25 04:52:15;;;;;;;14.05;7.95;;;;;;;19.49;69.28;101344.56;6186215;23;20446;-90
2022/08/25 04:54:46;;;;;;;12.35;6.85;;;;;;;19.52;68.45;101342.16;6184830;23;20424;-90
2022/08/25 04:57:14;;;;;;;12.13;7.05;;;;;;;19.54;68.19;101339.94;6185672;23;20005;-90
2022/08/25 04:59:40;;;;;;;8.80;6.43;;;;;;;19.56;67.96;101348.78;6184973;23;20458;-90
2022/08/25 05:02:11;;;;;;;11.65;6.40;;;;;;;19.58;67.78;101346.59;6184640;23;20088;-90
2022/08/25 05:04:37;;;;;;;11.20;5.88;;;;;;;19.63;67.50;101343.03;6184752;23;20035;-89
2022/08/25 05:07:05;;;;;;;9.50;6.40;;;;;;;19.63;67.30;101343.88;6185095;23;20412;-92
2022/08/25 05:09:30;;;;;;;9.77;5.93;;;;;;;19.67;66.85;101357.94;6184338;23;20371;-89
2022/08/25 05:11:56;;;;;;;10.97;5.70;;;;;;;19.72;66.69;101360.72;6184368;23;20027;-89
2022/08/25 05:14:22;;;;;;;9.50;5.57;;;;;;;19.73;66.37;101356.88;6184588;23;20009;-89
2022/08/25 05:16:48;;;;;;;11.65;5.72;;;;;;;19.77;66.32;101357.19;6185121;23;20055;-89
2022/08/25 05:19:13;;;;;;;12.63;5.80;;;;;;;19.82;65.86;101361.94;6184708;23;20049;-87
2022/08/25 05:21:45;;;;;;;9.47;5.60;;;;;;;19.87;65.68;101370.22;6184322;23;20009;-94
2022/08/25 05:24:10;;;;;;;9.38;5.63;;;;;;;19.93;65.76;101371.91;6184685;23;20005;-87
2022/08/25 05:26:37;;;;;;;12.83;5.93;;;;;;;19.98;65.54;101378.28;6159566;23;20438;-86
2022/08/25 05:29:04;;;;;;;6.35;5.38;;;;;;;20.08;65.50;101377.50;6159623;23;20013;-87
2022/08/25 05:31:31;;;;;;;11.63;5.32;;;;;;;20.24;64.45;101380.34;6184509;23;20040;-87
2022/08/25 05:33:57;;;;;;;10.48;5.07;;;;;;;20.40;64.41;101379.31;6184237;23;20009;-87
2022/08/25 05:36:26;;;;;;;8.40;4.80;;;;;;;20.54;64.29;101382.41;6184140;23;20486;-87
2022/08/25 05:38:53;;;;;;;12.20;5.03;;;;;;;20.67;63.41;101373.69;6185393;23;20229;-87
2022/08/25 05:41:21;;;;;;;10.10;5.32;;;;;;;20.79;63.08;101378.94;6185752;23;20040;-87
2022/08/25 05:43:48;;;;;;;9.63;4.90;;;;;;;20.85;62.72;101377.03;6185578;23;20024;-87
2022/08/25 05:46:16;;;;;;;8.05;5.15;;;;;;;20.89;62.49;101377.31;6184161;23;20005;-87
2022/08/25 05:48:42;;;;;;;9.43;5.50;;;;;;;20.95;61.92;101373.47;6184048;23;20067;-88
2022/08/25 05:51:11;;;;;;;9.63;5.53;;;;;;;20.98;61.70;101376.50;6184025;23;20012;-88
2022/08/25 05:53:41;;;;;;;7.07;5.13;;;;;;;21.01;61.52;101384.25;6184269;23;20412;-88
2022/08/25 05:56:08;;;;;;;7.70;4.70;;;;;;;21.05;61.06;101384.50;6184379;23;20029;-88
2022/08/25 05:58:35;;;;;;;10.03;5.53;;;;;;;21.11;60.78;101388.97;6186014;23;20035;-88
2022/08/25 06:03:58;;;;;;;9.35;4.93;;;;;;;21.23;60.17;101393.38;6185989;23;20024;-87
2022/08/25 06:06:24;;;;;;;12.57;4.85;;;;;;;21.27;60.10;101398.06;6187367;23;20092;-87
2022/08/25 06:08:52;;;;;;;7.07;4.45;;;;;;;21.33;59.46;101393.38;6185672;23;20013;-87
2022/08/25 06:11:21;;;;;;;9.07;4.57;;;;;;;21.37;59.63;101392.56;6185432;23;20041;-86
2022/08/25 06:13:49;;;;;;;10.93;4.60;;;;;;;21.43;58.86;101393.41;6186061;23;20005;-87
2022/08/25 06:16:19;;;;;;;10.70;4.57;;;;;;;21.46;59.08;101387.31;6161199;23;20017;-87
2022/08/25 06:18:44;;;;;;;8.93;4.60;;;;;;;21.55;59.12;101395.91;6185830;23;20005;-89
2022/08/25 06:21:12;;;;;;;7.27;4.90;;;;;;;21.59;58.13;101385.97;6185829;23;20012;-87
2022/08/25 06:23:38;;;;;;;9.23;4.00;;;;;;;21.68;57.77;101384.31;6185312;23;20013;-86
2022/08/25 06:26:04;;;;;;;13.80;4.70;;;;;;;21.73;57.82;101380.72;6185838;23;20434;-86
2022/08/25 06:28:31;;;;;;;7.50;4.65;;;;;;;21.82;57.55;101383.75;6185511;23;20039;-87
2022/08/25 06:30:59;;;;;;;11.00;4.47;;;;;;;21.85;56.94;101381.25;6185542;23;20005;-86
2022/08/25 06:33:24;;;;;;;10.48;4.80;;;;;;;21.93;56.96;101384.56;6186001;23;20009;-92
2022/08/25 06:35:54;;;;;;;8.07;4.63;;;;;;;22.00;56.37;101391.44;6186167;23;20502;-87
2022/08/25 06:38:20;;;;;;;10.33;4.40;;;;;;;22.07;56.22;101394.75;6186089;23;20005;-87
2022/08/25 06:40:47;;;;;;;7.50;4.43;;;;;;;22.14;55.88;101386.16;6187413;23;20005;-88
2022/08/25 06:43:33;;;;;;;13.63;4.90;;;;;;;22.19;56.24;101386.16;6185325;23;20368;-88
2022/08/25 06:46:13;;;;;;;11.73;4.88;;;;;;;22.28;56.21;101391.09;6186410;23;20013;-88
2022/08/25 06:48:40;;;;;;;9.73;4.73;;;;;;;22.32;55.40;101393.06;6185162;23;20009;-88
2022/08/25 06:51:17;;;;;;;9.00;4.68;;;;;;;22.38;55.47;101397.47;6161095;23;20122;-88
2022/08/25 06:53:49;;;;;;;10.35;4.85;;;;;;;22.46;55.01;101393.28;6186496;23;20336;-88
2022/08/25 06:56:16;;;;;;;11.30;4.80;;;;;;;22.51;54.97;101390.47;6186595;23;20001;-88
2022/08/25 06:58:49;;;;;;;8.10;4.80;;;;;;;22.56;54.04;101392.44;6185119;23;20156;-88
2022/08/25 07:01:22;;;;;;;7.63;4.50;;;;;;;22.62;54.12;101380.22;6161275;23;20032;-88
2022/08/25 07:03:49;;;;;;;10.23;4.80;;;;;;;22.69;53.71;101382.66;6184856;23;20013;-88
2022/08/25 07:06:23;;;;;;;11.57;4.68;;;;;;;22.75;53.94;101376.84;6185399;23;20023;-88
2022/08/25 07:08:49;;;;;;;8.70;4.60;;;;;;;22.83;53.86;101375.41;6161583;23;20424;-88
2022/08/25 07:11:15;;;;;;;8.60;4.80;;;;;;;22.91;53.84;101372.03;6185769;23;20071;-88
2022/08/25 07:13:41;;;;;;;9.48;4.47;;;;;;;22.95;53.67;101373.09;6185361;23;20005;-88
2022/08/25 07:16:07;;;;;;;11.75;4.97;;;;;;;23.00;53.18;101368.66;6185081;23;19997;-88
2022/08/25 07:18:34;;;;;;;9.30;4.40;;;;;;;23.07;53.04;101369.16;6185022;23;20013;-88
2022/08/25 07:20:59;;;;;;;11.13;4.75;;;;;;;23.11;52.37;101375.81;6185660;23;20035;-88
2022/08/25 07:23:25;;;;;;;7.90;5.05;;;;;;;23.16;52.42;101373.00;6184959;23;20420;-88
2022/08/25 07:25:52;;;;;;;8.17;4.50;;;;;;;23.24;52.03;101371.59;6185040;23;20526;-88
2022/08/25 07:28:19;;;;;;;10.85;4.40;;;;;;;23.32;52.33;101376.47;6187163;23;20076;-88
2022/08/25 07:30:44;;;;;;;9.02;4.88;;;;;;;23.40;51.96;101375.03;6185452;23;20021;-89
2022/08/25 07:33:10;;;;;;;14.37;4.87;;;;;;;23.44;51.27;101368.66;6185180;23;20017;-89
2022/08/25 07:35:36;;;;;;;8.98;4.95;;;;;;;23.53;51.44;101374.38;6186597;23;20001;-89
2022/08/25 07:38:07;;;;;;;5.72;4.50;;;;;;;23.58;50.97;101370.75;6186100;23;20411;-89
2022/08/25 07:40:35;;;;;;;17.97;7.47;;;;;;;23.64;50.66;101367.63;6185098;23;20085;-90
2022/08/25 07:43:06;;;;;;;12.02;4.82;;;;;;;23.75;50.50;101364.75;6184978;23;20316;-90
2022/08/25 07:45:34;;;;;;;8.23;4.55;;;;;;;23.84;50.96;101368.53;6185279;23;20009;-89
2022/08/25 07:48:04;;;;;;;10.85;4.30;;;;;;;23.95;49.94;101366.53;6185214;23;20422;-89
2022/08/25 07:50:31;;;;;;;11.88;4.55;;;;;;;24.06;50.50;101370.00;6185525;23;20027;-83
2022/08/25 07:53:00;;;;;;;10.33;4.33;;;;;;;24.17;50.40;101369.59;6160709;23;20009;-91
2022/08/25 07:55:27;;;;;;;14.85;4.45;;;;;;;24.26;49.76;101364.25;6186760;23;20013;-89
2022/08/25 07:58:02;;;;;;;19.98;4.50;;;;;;;24.34;49.46;101363.59;6160506;23;20020;-90
2022/08/25 08:00:32;;;;;;;14.63;4.40;;;;;;;24.47;49.37;101359.25;6163096;23;20008;-89
2022/08/25 08:03:01;;;;;;;8.80;4.35;;;;;;;24.55;49.27;101368.84;6184847;23;20009;-89
2022/08/25 08:05:27;;;;;;;15.00;4.47;;;;;;;24.67;48.93;101369.28;6186253;23;20004;-90
2022/08/25 08:07:59;;;;;;;7.07;3.83;;;;;;;24.81;48.86;101366.59;6186867;23;20001;-90
2022/08/25 08:10:28;;;;;;;8.48;3.50;;;;;;;24.92;48.53;101361.75;6189959;23;20034;-89
2022/08/25 08:12:57;;;;;;;7.30;3.50;;;;;;;25.03;48.22;101367.94;6190803;23;20016;-89
2022/08/25 08:15:22;;;;;;;9.33;3.40;;;;;;;25.15;48.86;101359.16;6190994;23;20004;-90
2022/08/25 08:17:51;;;;;;;12.35;3.90;;;;;;;25.18;48.47;101353.81;6216069;23;20030;-89
2022/08/25 08:20:19;;;;;;;8.55;3.88;;;;;;;25.31;48.16;101359.78;6189738;23;20008;-90
2022/08/25 08:22:45;;;;;;;8.53;3.83;;;;;;;25.32;48.18;101350.28;6190190;23;20012;-90
2022/08/25 08:25:14;;;;;;;8.18;4.03;;;;;;;25.41;48.05;101358.75;6164993;23;20370;-89
2022/08/25 08:27:44;;;;;;;8.27;3.85;;;;;;;25.50;47.33;101359.75;6216304;23;20005;-90
2022/08/25 08:30:13;;;;;;;9.40;3.43;;;;;;;25.55;46.77;101362.41;6189795;23;20004;-90
2022/08/25 08:32:41;;;;;;;5.25;3.70;;;;;;;25.64;46.52;101357.78;6216635;23;20004;-89
2022/08/25 08:35:09;;;;;;;10.32;3.85;;;;;;;25.74;45.72;101354.81;6190558;23;20458;-89
2022/08/25 08:37:40;;;;;;;11.38;3.58;;;;;;;25.83;45.59;101357.72;6164739;23;20009;-90
2022/08/25 08:40:08;;;;;;;10.18;3.70;;;;;;;25.93;46.50;101345.59;6217161;23;20001;-90
2022/08/25 08:42:56;;;;;;;11.33;3.87;;;;;;;26.03;46.38;101351.00;6189253;23;20047;-90
2022/08/25 08:45:42;;;;;;;8.15;3.60;;;;;;;26.14;47.21;101357.16;6190045;23;20339;-90
2022/08/25 08:48:17;;;;;;;10.25;4.10;;;;;;;26.25;44.98;101355.03;6189354;23;20012;-90
2022/08/25 08:51:08;;;;;;;5.45;3.70;;;;;;;26.35;45.32;101348.41;6189632;23;20012;-90
2022/08/25 08:53:52;;;;;;;7.97;3.63;;;;;;;26.49;44.40;101343.66;6190421;23;20015;-90
2022/08/25 08:56:42;;;;;;;7.67;3.80;;;;;;;26.57;45.18;101342.09;6189316;23;20019;-90
2022/08/25 08:59:17;;;;;;;6.70;3.50;;;;;;;26.75;44.43;101346.72;6215936;23;20092;-90
2022/08/25 09:01:58;;;;;;;8.68;3.72;;;;;;;26.94;44.83;101346.56;6189383;23;20004;-90
2022/08/25 09:04:53;;;;;;;9.65;3.63;;;;;;;27.08;44.15;101343.72;6190001;23;20100;-90
2022/08/25 09:07:27;;;;;;;6.22;3.33;;;;;;;27.28;42.99;101350.75;6189106;23;20038;-90
2022/08/25 09:09:53;;;;;;;11.90;3.60;;;;;;;27.44;41.95;101339.25;6189648;23;20016;-89
2022/08/25 09:12:43;;;;;;;9.73;3.90;;;;;;;27.62;43.18;101354.09;6188842;23;20017;-90
2022/08/25 09:16:53;;;;;;;5.47;3.50;;;;;;;27.78;42.41;101351.72;6216098;23;20000;-90
2022/08/25 09:18:30;;;;;;;9.73;3.60;;;;;;;27.94;41.59;101350.16;6215648;23;20128;-90
2022/08/25 09:21:26;;;;;;;5.57;3.70;;;;;;;28.14;41.12;101348.78;6189397;23;20009;-93
2022/08/25 09:24:37;;;;;;;10.10;3.80;;;;;;;28.34;40.85;101343.75;6191300;23;20019;-94
2022/08/25 09:27:23;;;;;;;6.47;3.78;;;;;;;28.49;39.79;101351.69;6190743;23;20088;-91
2022/08/25 09:29:59;;;;;;;5.60;3.33;;;;;;;28.59;40.52;101342.16;6189776;23;20004;-90
2022/08/25 09:32:29;;;;;;;7.57;3.60;;;;;;;28.75;39.48;101350.91;6191509;23;20082;-87
2022/08/25 09:34:59;;;;;;;7.47;3.90;;;;;;;29.00;39.44;101346.47;6191341;23;20119;-87
2022/08/25 09:37:27;;;;;;;5.47;3.65;;;;;;;29.19;38.84;101346.13;6218105;23;20015;-87
2022/08/25 09:39:52;;;;;;;9.93;3.92;;;;;;;29.46;37.82;101340.53;6217774;23;20036;-88
2022/08/25 09:42:42;;;;;;;4.97;3.13;;;;;;;29.63;36.16;101332.13;6217475;23;20360;-87
2022/08/25 09:45:12;;;;;;;7.85;3.50;;;;;;;29.83;36.28;101329.75;6190786;23;20035;-87
2022/08/25 09:47:44;;;;;;;7.85;4.28;;;;;;;29.97;36.64;101332.31;6191994;23;20021;-87
2022/08/25 09:50:19;;;;;;;6.40;3.70;;;;;;;30.30;36.39;101332.47;6191213;23;20012;-87
2022/08/25 09:52:44;;;;;;;8.32;3.50;;;;;;;30.65;35.37;101328.66;6191583;23;20013;-87
2022/08/25 09:55:13;;;;;;;4.72;3.30;;;;;;;30.89;33.93;101323.19;6191066;23;20373;-88
2022/08/25 09:57:44;;;;;;;11.95;4.07;;;;;;;31.11;32.34;101319.22;6192058;23;20311;-87
2022/08/25 10:00:14;;;;;;;6.37;3.47;;;;;;;31.22;31.60;101316.78;6191097;23;20339;-87
2022/08/25 10:02:44;;;;;;;6.63;3.38;;;;;;;31.41;32.08;101307.84;6217726;23;20136;-86
2022/08/25 10:05:20;;;;;;;4.72;3.30;;;;;;;31.55;32.54;101299.13;6191288;23;20009;-87
2022/08/25 10:07:56;;;;;;;8.05;3.67;;;;;;;31.82;32.24;101302.47;6190641;23;20431;-87
2022/08/25 10:10:32;;;;;;;3.92;3.10;;;;;;;31.95;30.82;101301.28;6190793;23;20433;-87
2022/08/25 10:12:59;;;;;;;6.13;3.57;;;;;;;32.24;28.68;101301.41;6191510;23;20040;-87
2022/08/25 10:15:37;;;;;;;5.65;3.58;;;;;;;32.39;30.36;101291.44;6192059;23;20063;-88
2022/08/25 10:18:26;;;;;;;4.13;2.88;;;;;;;32.73;30.67;101287.25;6217996;23;20079;-89
2022/08/25 10:21:12;;;;;;;4.63;2.97;;;;;;;33.12;29.20;101290.38;6192309;23;20012;-88
2022/08/25 10:23:51;;;;;;;7.68;3.30;;;;;;;33.31;28.79;101283.28;6191086;23;20044;-88
2022/08/25 10:26:54;;;;;;;5.93;3.20;;;;;;;33.47;28.66;101280.47;6191443;23;20490;-89
2022/08/25 10:29:53;;;;;;;6.72;3.22;;;;;;;33.57;28.72;101283.56;6217655;23;20031;-89
2022/08/25 10:32:46;;;;;;;6.18;3.10;;;;;;;33.55;27.58;101271.03;6191289;23;20015;-89
2022/08/25 10:35:16;;;;;;;6.03;3.22;;;;;;;33.43;26.19;101269.13;6191290;23;20004;-89
2022/08/25 10:37:59;;;;;;;5.07;3.30;;;;;;;33.53;27.13;101262.13;6217598;23;20031;-89
2022/08/25 10:40:44;;;;;;;4.67;3.10;;;;;;;33.59;27.37;101257.88;6191368;23;20040;-89
2022/08/25 10:43:29;;;;;;;6.65;3.40;;;;;;;33.49;27.55;101261.25;6191093;23;20020;-88
2022/08/25 10:46:08;;;;;;;5.43;3.30;;;;;;;33.38;27.84;101266.56;6191259;23;20009;-89
2022/08/25 10:48:52;;;;;;;6.90;3.50;;;;;;;33.37;27.36;101250.91;6191274;23;20009;-89
2022/08/25 10:52:00;;;;;;;6.22;3.33;;;;;;;33.30;28.20;101250.72;6191015;23;20063;-89
2022/08/25 10:54:56;;;;;;;4.93;3.30;;;;;;;33.25;27.60;101248.16;6190626;23;20055;-89
2022/08/25 10:57:55;;;;;;;10.90;3.75;;;;;;;33.23;28.66;101242.91;6190314;23;20016;-89
2022/08/25 11:00:25;;;;;;;6.05;3.70;;;;;;;33.36;28.26;101238.81;6192998;23;20070;-89
2022/08/25 11:03:15;;;;;;;4.05;3.65;;;;;;;33.55;28.71;101240.09;6190948;23;20015;-89
2022/08/25 11:06:04;;;;;;;7.80;3.90;;;;;;;33.89;29.13;101237.72;6190631;23;20012;-89
2022/08/25 11:08:50;;;;;;;7.10;3.70;;;;;;;34.14;28.69;101229.84;6190456;23;20313;-89
2022/08/25 11:11:30;;;;;;;6.88;4.10;;;;;;;34.41;28.55;101233.66;6190416;23;20017;-89
2022/08/25 11:14:14;;;;;;;13.07;4.47;;;;;;;34.87;27.24;101232.19;6191124;23;20082;-89
2022/08/25 11:16:45;;;;;;;5.78;4.07;;;;;;;35.48;26.35;101230.50;6191075;23;20008;-88
2022/08/25 11:19:17;;;;;;;8.63;3.88;;;;;;;37.10;25.76;101223.38;6190399;23;20012;-89
2022/08/25 11:21:48;;;;;;;8.83;4.07;;;;;;;40.06;21.31;101211.13;6189981;23;20004;-89
2022/08/25 11:24:17;;;;;;;9.05;3.70;;;;;;;42.18;18.79;101212.41;6189961;23;20422;-89
2022/08/25 11:26:53;;;;;;;12.25;4.63;;;;;;;44.07;17.59;101211.00;6189550;23;20012;-89
2022/08/25 11:29:24;;;;;;;5.70;4.00;;;;;;;46.12;15.60;101208.03;6190680;23;20012;-91
2022/08/25 11:34:27;;;;;;;6.33;4.80;;;;;;;48.59;13.09;101191.31;6152797;23;20028;-90
2022/08/25 11:37:11;;;;;;;8.70;4.97;;;;;;;49.92;12.50;101188.50;6158821;23;20009;-91
2022/08/25 11:39:40;;;;;;;5.97;4.80;;;;;;;51.15;11.57;101188.28;6160817;23;20040;-91
2022/08/25 11:42:18;;;;;;;7.05;5.40;;;;;;;52.41;12.43;101185.16;6160478;23;20381;-91
2022/08/25 11:45:28;;;;;;;6.25;5.75;;;;;;;53.20;11.92;101185.50;6186936;23;20001;-91
2022/08/25 11:48:20;;;;;;;6.77;6.10;;;;;;;54.01;10.83;101174.25;6159965;23;20015;-92
2022/08/25 11:50:57;;;;;;;7.30;6.28;;;;;;;54.99;9.95;101177.31;6160456;23;20009;-92
2022/08/25 11:53:36;;;;;;;7.68;6.90;;;;;;;55.87;9.69;101171.47;6186626;23;20063;-92
2022/08/25 11:56:11;;;;;;;7.72;7.03;;;;;;;56.05;8.10;101172.25;6159875;23;20013;-92
2022/08/25 11:58:49;;;;;;;8.50;7.70;;;;;;;56.07;8.93;101166.72;6160239;23;20076;-92
2022/08/25 12:01:41;;;;;;;9.40;8.03;;;;;;;56.85;9.30;101156.22;6186178;23;20056;-92
2022/08/25 12:04:32;;;;;;;9.15;8.43;;;;;;;56.63;7.86;101153.38;6186663;23;20001;-92
2022/08/25 12:07:09;;;;;;;8.82;8.15;;;;;;;56.92;7.78;101158.59;6186618;23;20403;-92
2022/08/25 12:10:09;;;;;;;10.57;9.68;;;;;;;57.67;8.34;101147.28;6186559;23;20442;-92
2022/08/25 12:12:40;;;;;;;11.65;9.85;;;;;;;57.11;7.04;101137.56;6160203;23;20015;-92
2022/08/25 12:15:52;;;;;;;11.30;10.10;;;;;;;57.66;8.05;101142.78;6160050;23;20009;-92